Terminal Aerodrome Forecast
Issued by NWS Caribou, ME

Home | Current Version | Previous Version | Text Only | Print | Product List | Glossary On
Versions: 1 2 3 4 5 6 7 8 9 10 11 12 13 14 15
264
FTUS41 KCAR 231741 CCA
TAFBGR
TAF COR
KBGR 231741Z 2318/2418 VRB03KT P6SM FEW140
     FM232300 VRB03KT P6SM SKC
     FM240100 VRB03KT P6SM FEW200
     FM240700 VRB03KT 5SM BR SCT020
     FM241200 VRB03KT P6SM SCT025
     FM241400 VRB03KT P6SM SCT040 BKN220=

USA.gov is the U.S. government's official web portal to all federal, state and local government web resources and services.